sensor_id;sensor_type;location;lat;lon;timestamp;P1;durP1;ratioP1;P2;durP2;ratioP2
68126;SDS011;54931;52.098;21.006;2023-07-30T00:00:53;7.60;;;4.40;;
68126;SDS011;54931;52.098;21.006;2023-07-30T00:03:38;7.00;;;4.30;;
68126;SDS011;54931;52.098;21.006;2023-07-30T00:06:05;6.60;;;4.70;;
68126;SDS011;54931;52.098;21.006;2023-07-30T00:08:32;6.10;;;4.30;;
68126;SDS011;54931;52.098;21.006;2023-07-30T00:11:00;7.20;;;4.90;;
68126;SDS011;54931;52.098;21.006;2023-07-30T00:13:27;7.20;;;4.30;;
68126;SDS011;54931;52.098;21.006;2023-07-30T00:15:55;7.20;;;4.00;;
68126;SDS011;54931;52.098;21.006;2023-07-30T00:18:22;5.50;;;4.00;;
68126;SDS011;54931;52.098;21.006;2023-07-30T00:20:49;6.30;;;4.50;;
68126;SDS011;54931;52.098;21.006;2023-07-30T00:23:17;6.20;;;3.80;;
68126;SDS011;54931;52.098;21.006;2023-07-30T00:25:44;7.10;;;4.20;;
68126;SDS011;54931;52.098;21.006;2023-07-30T00:28:11;8.50;;;4.00;;
68126;SDS011;54931;52.098;21.006;2023-07-30T00:30:39;7.00;;;4.10;;
68126;SDS011;54931;52.098;21.006;2023-07-30T00:33:06;7.10;;;4.40;;
68126;SDS011;54931;52.098;21.006;2023-07-30T00:35:34;7.10;;;4.40;;
68126;SDS011;54931;52.098;21.006;2023-07-30T00:38:01;5.70;;;3.90;;
68126;SDS011;54931;52.098;21.006;2023-07-30T00:40:28;6.80;;;4.10;;
68126;SDS011;54931;52.098;21.006;2023-07-30T00:42:56;5.00;;;3.60;;
68126;SDS011;54931;52.098;21.006;2023-07-30T00:45:23;4.60;;;3.20;;
68126;SDS011;54931;52.098;21.006;2023-07-30T00:47:51;7.30;;;3.90;;
68126;SDS011;54931;52.098;21.006;2023-07-30T00:50:18;5.30;;;4.00;;
68126;SDS011;54931;52.098;21.006;2023-07-30T00:52:46;6.20;;;3.80;;
68126;SDS011;54931;52.098;21.006;2023-07-30T00:55:14;5.50;;;3.50;;
68126;SDS011;54931;52.098;21.006;2023-07-30T00:57:42;6.90;;;4.10;;
68126;SDS011;54931;52.098;21.006;2023-07-30T01:00:11;6.10;;;3.20;;
68126;SDS011;54931;52.098;21.006;2023-07-30T01:02:39;5.70;;;3.30;;
68126;SDS011;54931;52.098;21.006;2023-07-30T01:05:07;6.80;;;3.80;;
68126;SDS011;54931;52.098;21.006;2023-07-30T01:07:34;6.30;;;3.40;;
68126;SDS011;54931;52.098;21.006;2023-07-30T01:10:02;5.90;;;3.20;;
68126;SDS011;54931;52.098;21.006;2023-07-30T01:12:31;4.80;;;3.60;;
68126;SDS011;54931;52.098;21.006;2023-07-30T01:15:00;5.90;;;3.50;;
68126;SDS011;54931;52.098;21.006;2023-07-30T01:17:28;5.50;;;3.70;;
68126;SDS011;54931;52.098;21.006;2023-07-30T01:19:56;7.40;;;3.20;;
68126;SDS011;54931;52.098;21.006;2023-07-30T01:22:23;6.00;;;3.60;;
68126;SDS011;54931;52.098;21.006;2023-07-30T01:24:51;4.00;;;3.30;;
68126;SDS011;54931;52.098;21.006;2023-07-30T01:27:25;5.50;;;3.70;;
68126;SDS011;54931;52.098;21.006;2023-07-30T01:32:34;6.10;;;3.40;;
68126;SDS011;54931;52.098;21.006;2023-07-30T01:35:04;4.30;;;3.30;;
68126;SDS011;54931;52.098;21.006;2023-07-30T01:37:36;5.30;;;3.50;;
68126;SDS011;54931;52.098;21.006;2023-07-30T01:40:07;9.20;;;3.50;;
68126;SDS011;54931;52.098;21.006;2023-07-30T01:42:36;6.00;;;3.40;;
68126;SDS011;54931;52.098;21.006;2023-07-30T01:45:05;5.00;;;3.10;;
68126;SDS011;54931;52.098;21.006;2023-07-30T01:47:33;7.20;;;3.30;;
68126;SDS011;54931;52.098;21.006;2023-07-30T01:50:01;4.50;;;3.10;;
68126;SDS011;54931;52.098;21.006;2023-07-30T01:52:29;5.10;;;3.50;;
68126;SDS011;54931;52.098;21.006;2023-07-30T01:54:57;8.60;;;3.60;;
68126;SDS011;54931;52.098;21.006;2023-07-30T01:57:26;7.80;;;3.50;;
68126;SDS011;54931;52.098;21.006;2023-07-30T01:59:54;4.20;;;3.20;;
68126;SDS011;54931;52.098;21.006;2023-07-30T02:02:21;5.30;;;3.20;;
68126;SDS011;54931;52.098;21.006;2023-07-30T02:04:48;5.20;;;3.70;;
68126;SDS011;54931;52.098;21.006;2023-07-30T02:07:15;4.20;;;3.50;;
68126;SDS011;54931;52.098;21.006;2023-07-30T02:09:43;5.30;;;3.50;;
68126;SDS011;54931;52.098;21.006;2023-07-30T02:12:10;6.60;;;3.60;;
68126;SDS011;54931;52.098;21.006;2023-07-30T02:14:38;4.70;;;3.20;;
68126;SDS011;54931;52.098;21.006;2023-07-30T02:17:05;5.10;;;3.30;;
68126;SDS011;54931;52.098;21.006;2023-07-30T02:19:33;4.90;;;3.50;;
68126;SDS011;54931;52.098;21.006;2023-07-30T02:22:00;5.40;;;3.80;;
68126;SDS011;54931;52.098;21.006;2023-07-30T02:24:27;6.30;;;3.90;;
68126;SDS011;54931;52.098;21.006;2023-07-30T02:26:57;5.00;;;4.20;;
68126;SDS011;54931;52.098;21.006;2023-07-30T02:29:24;6.60;;;3.80;;
68126;SDS011;54931;52.098;21.006;2023-07-30T02:31:52;9.40;;;4.20;;
68126;SDS011;54931;52.098;21.006;2023-07-30T02:34:20;7.30;;;3.80;;
68126;SDS011;54931;52.098;21.006;2023-07-30T02:36:48;8.10;;;4.10;;
68126;SDS011;54931;52.098;21.006;2023-07-30T02:39:16;6.00;;;3.80;;
68126;SDS011;54931;52.098;21.006;2023-07-30T02:41:43;6.10;;;3.60;;
68126;SDS011;54931;52.098;21.006;2023-07-30T02:44:10;7.80;;;3.60;;
68126;SDS011;54931;52.098;21.006;2023-07-30T02:46:38;5.50;;;4.10;;
68126;SDS011;54931;52.098;21.006;2023-07-30T02:49:05;11.40;;;4.20;;
68126;SDS011;54931;52.098;21.006;2023-07-30T02:51:32;8.40;;;4.50;;
68126;SDS011;54931;52.098;21.006;2023-07-30T02:54:04;6.90;;;4.40;;
68126;SDS011;54931;52.098;21.006;2023-07-30T02:56:32;5.50;;;4.30;;
68126;SDS011;54931;52.098;21.006;2023-07-30T02:59:00;7.40;;;4.70;;
68126;SDS011;54931;52.098;21.006;2023-07-30T03:01:28;6.40;;;4.40;;
68126;SDS011;54931;52.098;21.006;2023-07-30T03:03:55;6.40;;;5.00;;
68126;SDS011;54931;52.098;21.006;2023-07-30T03:06:22;10.40;;;5.60;;
68126;SDS011;54931;52.098;21.006;2023-07-30T03:08:50;8.20;;;5.80;;
68126;SDS011;54931;52.098;21.006;2023-07-30T03:11:17;11.30;;;5.80;;
68126;SDS011;54931;52.098;21.006;2023-07-30T03:13:45;8.50;;;5.90;;
68126;SDS011;54931;52.098;21.006;2023-07-30T03:16:12;9.20;;;6.20;;
68126;SDS011;54931;52.098;21.006;2023-07-30T03:18:39;16.10;;;6.90;;
68126;SDS011;54931;52.098;21.006;2023-07-30T03:21:07;8.20;;;6.50;;
68126;SDS011;54931;52.098;21.006;2023-07-30T03:23:34;14.10;;;6.10;;
68126;SDS011;54931;52.098;21.006;2023-07-30T03:26:01;11.60;;;6.30;;
68126;SDS011;54931;52.098;21.006;2023-07-30T03:28:29;10.90;;;6.40;;
68126;SDS011;54931;52.098;21.006;2023-07-30T03:30:56;10.80;;;6.50;;
68126;SDS011;54931;52.098;21.006;2023-07-30T03:33:23;9.00;;;6.20;;
68126;SDS011;54931;52.098;21.006;2023-07-30T03:35:51;9.30;;;6.50;;
68126;SDS011;54931;52.098;21.006;2023-07-30T03:38:19;10.20;;;6.60;;
68126;SDS011;54931;52.098;21.006;2023-07-30T03:40:46;9.60;;;6.60;;
68126;SDS011;54931;52.098;21.006;2023-07-30T03:43:13;9.60;;;6.50;;
68126;SDS011;54931;52.098;21.006;2023-07-30T03:45:41;10.70;;;6.70;;
68126;SDS011;54931;52.098;21.006;2023-07-30T03:48:10;12.90;;;7.40;;
68126;SDS011;54931;52.098;21.006;2023-07-30T03:50:38;11.20;;;7.10;;
68126;SDS011;54931;52.098;21.006;2023-07-30T03:53:05;12.60;;;7.30;;
68126;SDS011;54931;52.098;21.006;2023-07-30T03:55:33;12.60;;;7.50;;
68126;SDS011;54931;52.098;21.006;2023-07-30T03:58:00;10.20;;;7.00;;
68126;SDS011;54931;52.098;21.006;2023-07-30T04:00:27;12.60;;;7.40;;
68126;SDS011;54931;52.098;21.006;2023-07-30T04:02:57;13.40;;;6.80;;
68126;SDS011;54931;52.098;21.006;2023-07-30T04:05:24;13.30;;;7.20;;
68126;SDS011;54931;52.098;21.006;2023-07-30T04:07:51;14.80;;;7.40;;
68126;SDS011;54931;52.098;21.006;2023-07-30T04:10:19;10.90;;;6.80;;
68126;SDS011;54931;52.098;21.006;2023-07-30T04:12:47;11.50;;;7.60;;
68126;SDS011;54931;52.098;21.006;2023-07-30T04:15:15;11.50;;;7.40;;
68126;SDS011;54931;52.098;21.006;2023-07-30T04:17:43;13.70;;;7.30;;
68126;SDS011;54931;52.098;21.006;2023-07-30T04:20:11;13.80;;;6.90;;
68126;SDS011;54931;52.098;21.006;2023-07-30T04:22:39;13.00;;;7.10;;
68126;SDS011;54931;52.098;21.006;2023-07-30T04:25:09;12.20;;;7.70;;
68126;SDS011;54931;52.098;21.006;2023-07-30T04:27:40;11.10;;;6.80;;
68126;SDS011;54931;52.098;21.006;2023-07-30T04:30:10;9.50;;;6.70;;
68126;SDS011;54931;52.098;21.006;2023-07-30T04:32:38;8.70;;;6.60;;
68126;SDS011;54931;52.098;21.006;2023-07-30T04:35:06;10.40;;;6.90;;
68126;SDS011;54931;52.098;21.006;2023-07-30T04:37:34;9.00;;;6.50;;
68126;SDS011;54931;52.098;21.006;2023-07-30T04:40:02;10.00;;;6.50;;
68126;SDS011;54931;52.098;21.006;2023-07-30T04:42:30;11.30;;;6.30;;
68126;SDS011;54931;52.098;21.006;2023-07-30T04:44:57;9.30;;;6.30;;
68126;SDS011;54931;52.098;21.006;2023-07-30T04:47:25;12.90;;;6.40;;
68126;SDS011;54931;52.098;21.006;2023-07-30T04:49:52;7.80;;;6.00;;
68126;SDS011;54931;52.098;21.006;2023-07-30T04:52:19;14.30;;;6.40;;
68126;SDS011;54931;52.098;21.006;2023-07-30T04:54:47;8.50;;;5.60;;
68126;SDS011;54931;52.098;21.006;2023-07-30T04:57:14;10.60;;;5.60;;
68126;SDS011;54931;52.098;21.006;2023-07-30T04:59:41;8.70;;;5.90;;
68126;SDS011;54931;52.098;21.006;2023-07-30T05:02:09;9.50;;;6.00;;
68126;SDS011;54931;52.098;21.006;2023-07-30T05:04:37;8.00;;;5.70;;
68126;SDS011;54931;52.098;21.006;2023-07-30T05:07:05;9.00;;;5.40;;
68126;SDS011;54931;52.098;21.006;2023-07-30T05:09:32;8.80;;;5.70;;
68126;SDS011;54931;52.098;21.006;2023-07-30T05:12:00;7.70;;;5.00;;
68126;SDS011;54931;52.098;21.006;2023-07-30T05:14:27;8.20;;;5.30;;
68126;SDS011;54931;52.098;21.006;2023-07-30T05:16:55;9.70;;;5.20;;
68126;SDS011;54931;52.098;21.006;2023-07-30T05:19:22;7.30;;;4.80;;
68126;SDS011;54931;52.098;21.006;2023-07-30T05:21:49;7.00;;;5.00;;
68126;SDS011;54931;52.098;21.006;2023-07-30T05:24:17;6.70;;;4.90;;
68126;SDS011;54931;52.098;21.006;2023-07-30T05:26:44;7.50;;;4.70;;
68126;SDS011;54931;52.098;21.006;2023-07-30T05:29:11;6.30;;;4.90;;
68126;SDS011;54931;52.098;21.006;2023-07-30T05:31:39;8.60;;;4.70;;
68126;SDS011;54931;52.098;21.006;2023-07-30T05:34:06;7.30;;;5.00;;
68126;SDS011;54931;52.098;21.006;2023-07-30T05:36:34;5.90;;;4.60;;
68126;SDS011;54931;52.098;21.006;2023-07-30T05:39:02;7.60;;;4.30;;
68126;SDS011;54931;52.098;21.006;2023-07-30T05:41:29;7.20;;;4.70;;
68126;SDS011;54931;52.098;21.006;2023-07-30T05:43:57;7.50;;;4.50;;
68126;SDS011;54931;52.098;21.006;2023-07-30T05:46:25;8.20;;;4.50;;
68126;SDS011;54931;52.098;21.006;2023-07-30T05:48:52;6.40;;;4.10;;
68126;SDS011;54931;52.098;21.006;2023-07-30T05:51:20;6.50;;;4.40;;
68126;SDS011;54931;52.098;21.006;2023-07-30T05:53:47;5.70;;;4.00;;
68126;SDS011;54931;52.098;21.006;2023-07-30T05:56:14;5.70;;;3.80;;
68126;SDS011;54931;52.098;21.006;2023-07-30T05:58:45;6.40;;;3.80;;
68126;SDS011;54931;52.098;21.006;2023-07-30T06:01:12;6.30;;;3.60;;
68126;SDS011;54931;52.098;21.006;2023-07-30T06:03:40;7.80;;;3.60;;
68126;SDS011;54931;52.098;21.006;2023-07-30T06:06:08;6.10;;;3.60;;
68126;SDS011;54931;52.098;21.006;2023-07-30T06:08:35;5.50;;;3.60;;
68126;SDS011;54931;52.098;21.006;2023-07-30T06:11:03;12.20;;;3.40;;
68126;SDS011;54931;52.098;21.006;2023-07-30T06:13:30;4.70;;;3.50;;
68126;SDS011;54931;52.098;21.006;2023-07-30T06:15:58;4.60;;;3.50;;
68126;SDS011;54931;52.098;21.006;2023-07-30T06:18:25;6.40;;;3.90;;
68126;SDS011;54931;52.098;21.006;2023-07-30T06:20:52;5.90;;;3.40;;
68126;SDS011;54931;52.098;21.006;2023-07-30T06:23:20;5.80;;;3.90;;
68126;SDS011;54931;52.098;21.006;2023-07-30T06:25:47;8.50;;;3.80;;
68126;SDS011;54931;52.098;21.006;2023-07-30T06:28:14;7.00;;;4.00;;
68126;SDS011;54931;52.098;21.006;2023-07-30T06:30:42;6.60;;;3.60;;
68126;SDS011;54931;52.098;21.006;2023-07-30T06:33:09;7.30;;;4.30;;
68126;SDS011;54931;52.098;21.006;2023-07-30T06:35:37;6.30;;;4.20;;
68126;SDS011;54931;52.098;21.006;2023-07-30T06:38:08;6.10;;;4.40;;
68126;SDS011;54931;52.098;21.006;2023-07-30T06:40:36;6.70;;;4.30;;
68126;SDS011;54931;52.098;21.006;2023-07-30T06:43:03;9.60;;;4.60;;
68126;SDS011;54931;52.098;21.006;2023-07-30T06:45:30;9.60;;;5.40;;
68126;SDS011;54931;52.098;21.006;2023-07-30T06:47:57;8.50;;;5.70;;
68126;SDS011;54931;52.098;21.006;2023-07-30T06:50:25;10.10;;;6.50;;
68126;SDS011;54931;52.098;21.006;2023-07-30T06:52:52;11.90;;;7.40;;
68126;SDS011;54931;52.098;21.006;2023-07-30T06:55:20;11.50;;;7.50;;
68126;SDS011;54931;52.098;21.006;2023-07-30T06:57:47;13.40;;;7.00;;
68126;SDS011;54931;52.098;21.006;2023-07-30T07:00:14;10.30;;;6.70;;
68126;SDS011;54931;52.098;21.006;2023-07-30T07:02:48;8.40;;;6.40;;
68126;SDS011;54931;52.098;21.006;2023-07-30T07:05:16;10.20;;;7.20;;
68126;SDS011;54931;52.098;21.006;2023-07-30T07:07:44;10.60;;;8.50;;
68126;SDS011;54931;52.098;21.006;2023-07-30T07:10:12;11.30;;;8.20;;
68126;SDS011;54931;52.098;21.006;2023-07-30T07:12:39;9.70;;;7.40;;
68126;SDS011;54931;52.098;21.006;2023-07-30T07:15:07;8.40;;;6.60;;
68126;SDS011;54931;52.098;21.006;2023-07-30T07:17:36;9.30;;;6.60;;
68126;SDS011;54931;52.098;21.006;2023-07-30T07:20:04;6.80;;;5.50;;
68126;SDS011;54931;52.098;21.006;2023-07-30T07:22:34;6.90;;;4.90;;
68126;SDS011;54931;52.098;21.006;2023-07-30T07:25:03;6.90;;;4.40;;
68126;SDS011;54931;52.098;21.006;2023-07-30T07:27:31;7.20;;;4.20;;
68126;SDS011;54931;52.098;21.006;2023-07-30T07:29:58;5.30;;;4.30;;
68126;SDS011;54931;52.098;21.006;2023-07-30T07:32:26;8.40;;;4.30;;
68126;SDS011;54931;52.098;21.006;2023-07-30T07:34:54;6.30;;;4.00;;
68126;SDS011;54931;52.098;21.006;2023-07-30T07:37:21;5.70;;;3.90;;
68126;SDS011;54931;52.098;21.006;2023-07-30T07:39:48;8.20;;;4.00;;
68126;SDS011;54931;52.098;21.006;2023-07-30T07:42:15;5.60;;;3.90;;
68126;SDS011;54931;52.098;21.006;2023-07-30T07:44:43;5.50;;;3.90;;
68126;SDS011;54931;52.098;21.006;2023-07-30T07:47:13;6.20;;;3.70;;
68126;SDS011;54931;52.098;21.006;2023-07-30T07:49:40;6.30;;;3.80;;
68126;SDS011;54931;52.098;21.006;2023-07-30T07:52:07;8.70;;;3.80;;
68126;SDS011;54931;52.098;21.006;2023-07-30T07:54:37;5.10;;;4.70;;
68126;SDS011;54931;52.098;21.006;2023-07-30T07:57:04;8.50;;;3.50;;
68126;SDS011;54931;52.098;21.006;2023-07-30T07:59:32;3.90;;;3.40;;
68126;SDS011;54931;52.098;21.006;2023-07-30T08:02:00;4.60;;;3.60;;
68126;SDS011;54931;52.098;21.006;2023-07-30T08:04:27;6.80;;;3.60;;
68126;SDS011;54931;52.098;21.006;2023-07-30T08:06:54;4.40;;;3.10;;
68126;SDS011;54931;52.098;21.006;2023-07-30T08:09:22;5.60;;;3.20;;
68126;SDS011;54931;52.098;21.006;2023-07-30T08:11:51;4.30;;;3.10;;
68126;SDS011;54931;52.098;21.006;2023-07-30T08:14:18;4.50;;;3.30;;
68126;SDS011;54931;52.098;21.006;2023-07-30T08:16:45;4.30;;;3.40;;
68126;SDS011;54931;52.098;21.006;2023-07-30T08:19:13;4.00;;;3.00;;
68126;SDS011;54931;52.098;21.006;2023-07-30T08:21:40;4.80;;;3.20;;
68126;SDS011;54931;52.098;21.006;2023-07-30T08:24:08;6.10;;;3.00;;
68126;SDS011;54931;52.098;21.006;2023-07-30T08:26:35;4.10;;;2.90;;
68126;SDS011;54931;52.098;21.006;2023-07-30T08:29:03;3.70;;;3.20;;
68126;SDS011;54931;52.098;21.006;2023-07-30T08:31:30;5.20;;;2.60;;
68126;SDS011;54931;52.098;21.006;2023-07-30T08:33:58;5.80;;;3.10;;
68126;SDS011;54931;52.098;21.006;2023-07-30T08:36:25;4.00;;;3.30;;
68126;SDS011;54931;52.098;21.006;2023-07-30T08:38:53;3.60;;;3.10;;
68126;SDS011;54931;52.098;21.006;2023-07-30T08:41:20;5.30;;;3.50;;
68126;SDS011;54931;52.098;21.006;2023-07-30T08:43:48;3.80;;;4.80;;
68126;SDS011;54931;52.098;21.006;2023-07-30T08:46:16;4.30;;;3.90;;
68126;SDS011;54931;52.098;21.006;2023-07-30T08:48:44;5.00;;;4.00;;
68126;SDS011;54931;52.098;21.006;2023-07-30T08:51:12;4.10;;;3.70;;
68126;SDS011;54931;52.098;21.006;2023-07-30T08:53:49;4.60;;;3.80;;
68126;SDS011;54931;52.098;21.006;2023-07-30T08:56:18;4.90;;;3.70;;
68126;SDS011;54931;52.098;21.006;2023-07-30T08:58:47;4.10;;;3.70;;
68126;SDS011;54931;52.098;21.006;2023-07-30T09:01:19;4.80;;;4.30;;
68126;SDS011;54931;52.098;21.006;2023-07-30T09:03:50;4.90;;;4.20;;
68126;SDS011;54931;52.098;21.006;2023-07-30T09:06:20;4.80;;;4.00;;
68126;SDS011;54931;52.098;21.006;2023-07-30T09:08:47;4.90;;;4.20;;
68126;SDS011;54931;52.098;21.006;2023-07-30T09:11:15;4.70;;;3.80;;
68126;SDS011;54931;52.098;21.006;2023-07-30T09:13:43;5.20;;;3.80;;
68126;SDS011;54931;52.098;21.006;2023-07-30T09:16:11;4.90;;;4.10;;
68126;SDS011;54931;52.098;21.006;2023-07-30T09:18:40;5.30;;;3.80;;
68126;SDS011;54931;52.098;21.006;2023-07-30T09:21:10;5.30;;;3.90;;
68126;SDS011;54931;52.098;21.006;2023-07-30T09:23:43;4.90;;;3.60;;
68126;SDS011;54931;52.098;21.006;2023-07-30T09:26:13;6.50;;;3.70;;
68126;SDS011;54931;52.098;21.006;2023-07-30T09:28:41;5.20;;;3.80;;
68126;SDS011;54931;52.098;21.006;2023-07-30T09:31:09;4.30;;;3.80;;
68126;SDS011;54931;52.098;21.006;2023-07-30T09:33:41;4.80;;;4.10;;
68126;SDS011;54931;52.098;21.006;2023-07-30T09:36:09;6.50;;;3.90;;
68126;SDS011;54931;52.098;21.006;2023-07-30T09:38:42;4.30;;;3.80;;
68126;SDS011;54931;52.098;21.006;2023-07-30T09:41:11;4.60;;;3.90;;
68126;SDS011;54931;52.098;21.006;2023-07-30T09:43:39;4.20;;;3.40;;
68126;SDS011;54931;52.098;21.006;2023-07-30T09:46:06;3.90;;;3.50;;
68126;SDS011;54931;52.098;21.006;2023-07-30T09:48:34;4.90;;;3.90;;
68126;SDS011;54931;52.098;21.006;2023-07-30T09:51:03;3.90;;;3.40;;
68126;SDS011;54931;52.098;21.006;2023-07-30T09:53:32;5.00;;;3.30;;
68126;SDS011;54931;52.098;21.006;2023-07-30T09:56:02;4.00;;;3.60;;
68126;SDS011;54931;52.098;21.006;2023-07-30T09:58:31;4.10;;;3.50;;
68126;SDS011;54931;52.098;21.006;2023-07-30T10:00:58;4.50;;;3.40;;
68126;SDS011;54931;52.098;21.006;2023-07-30T10:03:28;4.00;;;3.50;;
68126;SDS011;54931;52.098;21.006;2023-07-30T10:06:02;3.80;;;3.30;;
68126;SDS011;54931;52.098;21.006;2023-07-30T10:08:34;3.80;;;3.40;;
68126;SDS011;54931;52.098;21.006;2023-07-30T10:11:07;4.90;;;3.20;;
68126;SDS011;54931;52.098;21.006;2023-07-30T10:13:37;4.00;;;3.60;;
68126;SDS011;54931;52.098;21.006;2023-07-30T10:16:11;5.10;;;3.60;;
68126;SDS011;54931;52.098;21.006;2023-07-30T10:18:39;4.30;;;3.10;;
68126;SDS011;54931;52.098;21.006;2023-07-30T10:21:08;4.60;;;3.60;;
68126;SDS011;54931;52.098;21.006;2023-07-30T10:23:49;5.00;;;3.40;;
68126;SDS011;54931;52.098;21.006;2023-07-30T10:26:31;4.30;;;3.40;;
68126;SDS011;54931;52.098;21.006;2023-07-30T10:29:19;3.60;;;3.30;;
68126;SDS011;54931;52.098;21.006;2023-07-30T10:31:54;3.30;;;3.00;;
68126;SDS011;54931;52.098;21.006;2023-07-30T10:34:43;4.10;;;3.70;;
68126;SDS011;54931;52.098;21.006;2023-07-30T10:37:22;4.40;;;3.50;;
68126;SDS011;54931;52.098;21.006;2023-07-30T10:39:51;5.10;;;3.30;;
68126;SDS011;54931;52.098;21.006;2023-07-30T10:42:18;4.40;;;3.40;;
68126;SDS011;54931;52.098;21.006;2023-07-30T10:44:46;4.10;;;3.30;;
68126;SDS011;54931;52.098;21.006;2023-07-30T10:47:14;4.90;;;3.20;;
68126;SDS011;54931;52.098;21.006;2023-07-30T10:49:42;4.70;;;3.20;;
68126;SDS011;54931;52.098;21.006;2023-07-30T10:52:13;4.70;;;3.30;;
68126;SDS011;54931;52.098;21.006;2023-07-30T10:54:42;3.80;;;3.10;;
68126;SDS011;54931;52.098;21.006;2023-07-30T10:57:10;3.50;;;3.20;;
68126;SDS011;54931;52.098;21.006;2023-07-30T10:59:38;4.60;;;3.30;;
68126;SDS011;54931;52.098;21.006;2023-07-30T11:02:06;4.80;;;3.20;;
68126;SDS011;54931;52.098;21.006;2023-07-30T11:04:36;4.50;;;3.20;;
68126;SDS011;54931;52.098;21.006;2023-07-30T11:07:03;3.60;;;3.20;;
68126;SDS011;54931;52.098;21.006;2023-07-30T11:09:31;4.50;;;3.60;;
68126;SDS011;54931;52.098;21.006;2023-07-30T11:11:58;3.70;;;3.30;;
68126;SDS011;54931;52.098;21.006;2023-07-30T11:14:26;3.50;;;3.10;;
68126;SDS011;54931;52.098;21.006;2023-07-30T11:16:55;4.00;;;3.10;;
68126;SDS011;54931;52.098;21.006;2023-07-30T11:19:28;5.10;;;3.60;;
68126;SDS011;54931;52.098;21.006;2023-07-30T11:21:57;4.90;;;3.50;;
68126;SDS011;54931;52.098;21.006;2023-07-30T11:24:34;5.60;;;3.90;;
68126;SDS011;54931;52.098;21.006;2023-07-30T11:27:03;7.20;;;3.90;;
68126;SDS011;54931;52.098;21.006;2023-07-30T11:29:30;4.40;;;3.70;;
68126;SDS011;54931;52.098;21.006;2023-07-30T11:31:59;4.20;;;3.70;;
68126;SDS011;54931;52.098;21.006;2023-07-30T11:34:30;5.70;;;3.80;;
68126;SDS011;54931;52.098;21.006;2023-07-30T11:36:58;4.10;;;3.60;;
68126;SDS011;54931;52.098;21.006;2023-07-30T11:39:26;4.00;;;3.50;;
68126;SDS011;54931;52.098;21.006;2023-07-30T11:41:55;5.30;;;3.80;;
68126;SDS011;54931;52.098;21.006;2023-07-30T11:44:35;5.60;;;3.50;;
68126;SDS011;54931;52.098;21.006;2023-07-30T11:47:07;4.40;;;3.60;;
68126;SDS011;54931;52.098;21.006;2023-07-30T11:49:36;4.40;;;3.60;;
68126;SDS011;54931;52.098;21.006;2023-07-30T11:54:34;5.30;;;3.20;;
68126;SDS011;54931;52.098;21.006;2023-07-30T11:57:02;5.00;;;3.40;;
68126;SDS011;54931;52.098;21.006;2023-07-30T11:59:31;4.90;;;3.30;;
68126;SDS011;54931;52.098;21.006;2023-07-30T12:01:59;5.50;;;3.40;;
68126;SDS011;54931;52.098;21.006;2023-07-30T12:04:31;6.00;;;3.80;;
68126;SDS011;54931;52.098;21.006;2023-07-30T12:07:10;4.90;;;3.50;;
68126;SDS011;54931;52.098;21.006;2023-07-30T12:09:38;4.80;;;3.50;;
68126;SDS011;54931;52.098;21.006;2023-07-30T12:12:06;3.70;;;3.30;;
68126;SDS011;54931;52.098;21.006;2023-07-30T12:14:52;4.70;;;3.30;;
68126;SDS011;54931;52.098;21.006;2023-07-30T12:19:50;3.90;;;3.20;;
68126;SDS011;54931;52.098;21.006;2023-07-30T12:22:17;5.00;;;3.40;;
68126;SDS011;54931;52.098;21.006;2023-07-30T12:24:45;5.30;;;3.50;;
68126;SDS011;54931;52.098;21.006;2023-07-30T12:27:13;6.50;;;3.70;;
68126;SDS011;54931;52.098;21.006;2023-07-30T12:29:41;3.90;;;3.40;;
68126;SDS011;54931;52.098;21.006;2023-07-30T12:32:09;4.50;;;3.60;;
68126;SDS011;54931;52.098;21.006;2023-07-30T12:34:37;5.40;;;3.30;;
68126;SDS011;54931;52.098;21.006;2023-07-30T12:37:05;4.40;;;3.30;;
68126;SDS011;54931;52.098;21.006;2023-07-30T12:39:32;4.20;;;3.20;;
68126;SDS011;54931;52.098;21.006;2023-07-30T12:42:00;4.30;;;3.50;;
68126;SDS011;54931;52.098;21.006;2023-07-30T12:44:29;4.00;;;3.20;;
68126;SDS011;54931;52.098;21.006;2023-07-30T12:46:56;4.80;;;3.40;;
68126;SDS011;54931;52.098;21.006;2023-07-30T12:49:24;5.00;;;3.60;;
68126;SDS011;54931;52.098;21.006;2023-07-30T12:51:52;4.90;;;3.30;;
68126;SDS011;54931;52.098;21.006;2023-07-30T12:54:19;5.60;;;3.50;;
68126;SDS011;54931;52.098;21.006;2023-07-30T12:56:47;5.10;;;3.40;;
68126;SDS011;54931;52.098;21.006;2023-07-30T12:59:17;6.00;;;3.40;;
68126;SDS011;54931;52.098;21.006;2023-07-30T13:01:45;4.50;;;3.30;;
68126;SDS011;54931;52.098;21.006;2023-07-30T13:04:13;5.80;;;3.40;;
68126;SDS011;54931;52.098;21.006;2023-07-30T13:06:41;4.70;;;3.80;;
68126;SDS011;54931;52.098;21.006;2023-07-30T13:09:08;8.80;;;3.90;;
68126;SDS011;54931;52.098;21.006;2023-07-30T13:11:36;4.60;;;3.80;;
68126;SDS011;54931;52.098;21.006;2023-07-30T13:14:04;5.40;;;3.60;;
68126;SDS011;54931;52.098;21.006;2023-07-30T13:16:32;4.70;;;3.50;;
68126;SDS011;54931;52.098;21.006;2023-07-30T13:18:59;5.20;;;4.20;;
68126;SDS011;54931;52.098;21.006;2023-07-30T13:21:27;4.30;;;3.90;;
68126;SDS011;54931;52.098;21.006;2023-07-30T13:23:55;4.50;;;3.80;;
68126;SDS011;54931;52.098;21.006;2023-07-30T13:26:22;4.20;;;3.70;;
68126;SDS011;54931;52.098;21.006;2023-07-30T13:28:50;4.50;;;3.70;;
68126;SDS011;54931;52.098;21.006;2023-07-30T13:31:18;5.70;;;3.90;;
68126;SDS011;54931;52.098;21.006;2023-07-30T13:33:46;5.50;;;3.40;;
68126;SDS011;54931;52.098;21.006;2023-07-30T13:36:14;4.40;;;3.70;;
68126;SDS011;54931;52.098;21.006;2023-07-30T13:38:43;4.20;;;3.50;;
68126;SDS011;54931;52.098;21.006;2023-07-30T13:41:10;13.10;;;5.50;;
68126;SDS011;54931;52.098;21.006;2023-07-30T13:43:38;6.30;;;3.90;;
68126;SDS011;54931;52.098;21.006;2023-07-30T13:46:06;4.90;;;3.70;;
68126;SDS011;54931;52.098;21.006;2023-07-30T13:48:35;4.40;;;3.90;;
68126;SDS011;54931;52.098;21.006;2023-07-30T13:51:02;3.70;;;3.40;;
68126;SDS011;54931;52.098;21.006;2023-07-30T13:53:30;4.00;;;3.60;;
68126;SDS011;54931;52.098;21.006;2023-07-30T13:55:58;3.70;;;3.20;;
68126;SDS011;54931;52.098;21.006;2023-07-30T13:58:25;6.20;;;3.30;;
68126;SDS011;54931;52.098;21.006;2023-07-30T14:00:53;4.90;;;3.20;;
68126;SDS011;54931;52.098;21.006;2023-07-30T14:03:22;3.50;;;3.10;;
68126;SDS011;54931;52.098;21.006;2023-07-30T14:05:49;4.50;;;3.50;;
68126;SDS011;54931;52.098;21.006;2023-07-30T14:08:17;4.80;;;3.10;;
68126;SDS011;54931;52.098;21.006;2023-07-30T14:10:44;5.60;;;3.20;;
68126;SDS011;54931;52.098;21.006;2023-07-30T14:13:12;3.50;;;3.20;;
68126;SDS011;54931;52.098;21.006;2023-07-30T14:15:40;3.70;;;3.30;;
68126;SDS011;54931;52.098;21.006;2023-07-30T14:18:08;4.30;;;3.50;;
68126;SDS011;54931;52.098;21.006;2023-07-30T14:20:37;3.80;;;3.10;;
68126;SDS011;54931;52.098;21.006;2023-07-30T14:23:05;3.60;;;3.20;;
68126;SDS011;54931;52.098;21.006;2023-07-30T14:25:33;6.30;;;3.40;;
68126;SDS011;54931;52.098;21.006;2023-07-30T14:28:00;4.10;;;3.20;;
68126;SDS011;54931;52.098;21.006;2023-07-30T14:30:28;4.50;;;3.40;;
68126;SDS011;54931;52.098;21.006;2023-07-30T14:32:56;5.60;;;3.50;;
68126;SDS011;54931;52.098;21.006;2023-07-30T14:35:24;7.60;;;3.30;;
68126;SDS011;54931;52.098;21.006;2023-07-30T14:37:52;4.60;;;3.50;;
68126;SDS011;54931;52.098;21.006;2023-07-30T14:40:19;4.20;;;3.10;;
68126;SDS011;54931;52.098;21.006;2023-07-30T14:42:47;4.50;;;3.10;;
68126;SDS011;54931;52.098;21.006;2023-07-30T14:45:15;3.30;;;3.00;;
68126;SDS011;54931;52.098;21.006;2023-07-30T14:47:42;6.00;;;3.20;;